Time;durP1;ratioP1;P1;durP2;ratioP2;P2;SDS_P1;SDS_P2;PMS_P1;PMS_P2;Temp;Humidity;BMP_temperature;BMP_pressure;BME280_temperature;BME280_humidity;BME280_pressure;Samples;Min_cycle;Max_cycle;Signal;HPM_P1;HPM_P2
2022/07/14 00:00:28;;;;;;;212.07;192.18;;;18.80;80.20;;;;;;5019863;28;20705;-86
2022/07/14 00:02:57;;;;;;;204.85;185.52;;;18.80;80.10;;;;;;5021243;28;20049;-86
2022/07/14 00:05:24;;;;;;;196.77;178.43;;;18.80;80.20;;;;;;5037398;28;20542;-86
2022/07/14 00:07:51;;;;;;;196.63;178.13;;;18.80;80.10;;;;;;5020766;28;20157;-86
2022/07/14 00:10:18;;;;;;;191.27;172.93;;;18.70;80.00;;;;;;5021049;28;20077;-86
2022/07/14 00:12:44;;;;;;;206.95;187.32;;;18.60;80.00;;;;;;5020884;28;20141;-86
2022/07/14 00:15:11;;;;;;;202.85;183.80;;;18.70;80.30;;;;;;5037642;28;20049;-85
2022/07/14 00:17:38;;;;;;;201.00;182.00;;;18.60;80.40;;;;;;5037473;28;20555;-86
2022/07/14 00:20:08;;;;;;;195.30;176.90;;;18.50;80.50;;;;;;5037370;28;20042;-86
2022/07/14 00:22:35;;;;;;;202.27;183.25;;;18.50;80.70;;;;;;5037286;28;20534;-85
2022/07/14 00:25:01;;;;;;;198.35;179.85;;;18.40;80.90;;;;;;5021018;28;20603;-87
2022/07/14 00:27:29;;;;;;;193.70;175.65;;;18.40;81.10;;;;;;5020848;28;20124;-86
2022/07/14 00:29:55;;;;;;;200.48;181.85;;;18.40;81.40;;;;;;5037813;28;20053;-86
2022/07/14 00:32:23;;;;;;;194.25;176.15;;;18.40;81.70;;;;;;5020871;28;20062;-86
2022/07/14 00:34:50;;;;;;;201.93;182.88;;;18.40;81.90;;;;;;5037116;28;20435;-86
2022/07/14 00:37:18;;;;;;;211.27;191.63;;;18.30;81.90;;;;;;5036781;28;20124;-86
2022/07/14 00:39:58;;;;;;;215.07;195.10;;;18.30;82.10;;;;;;5037378;28;20144;-87
2022/07/14 00:42:29;;;;;;;217.85;196.98;;;18.30;81.70;;;;;;5021267;28;20057;-86
2022/07/14 00:44:57;;;;;;;208.85;189.15;;;18.30;81.80;;;;;;5037420;28;20057;-86
2022/07/14 00:47:24;;;;;;;191.30;173.15;;;18.20;81.80;;;;;;5020601;28;20519;-85
2022/07/14 00:49:53;;;;;;;196.10;177.23;;;18.20;81.80;;;;;;5020695;28;20058;-86
2022/07/14 00:52:22;;;;;;;188.90;170.70;;;18.20;82.10;;;;;;5020129;28;20456;-87
2022/07/14 00:54:49;;;;;;;193.05;174.25;;;18.10;82.20;;;;;;5020850;28;20085;-87
2022/07/14 00:57:17;;;;;;;187.15;169.55;;;18.20;82.50;;;;;;5019936;28;20522;-86
2022/07/14 00:59:44;;;;;;;181.50;164.32;;;18.00;83.00;;;;;;5020799;28;20104;-86
2022/07/14 01:02:11;;;;;;;184.25;166.70;;;18.00;83.20;;;;;;5020979;28;20112;-86
2022/07/14 01:04:38;;;;;;;178.88;161.63;;;18.00;83.20;;;;;;5020947;28;20045;-87
2022/07/14 01:07:05;;;;;;;184.27;166.57;;;17.90;83.20;;;;;;5036848;28;20141;-86
2022/07/14 01:09:34;;;;;;;189.75;171.68;;;17.90;82.90;;;;;;5036695;28;20050;-87
2022/07/14 01:12:02;;;;;;;192.95;174.35;;;17.90;83.10;;;;;;5032903;28;20534;-87
2022/07/14 01:14:29;;;;;;;166.05;150.20;;;17.90;82.90;;;;;;5033481;28;20443;-87
2022/07/14 01:16:56;;;;;;;175.98;159.45;;;17.80;82.70;;;;;;5017218;28;20126;-87
2022/07/14 01:19:24;;;;;;;163.90;148.35;;;17.80;82.50;;;;;;5016680;28;20141;-86
2022/07/14 01:21:53;;;;;;;168.65;152.65;;;17.80;83.60;;;;;;5033487;28;20137;-86
2022/07/14 01:24:20;;;;;;;175.10;158.60;;;17.70;83.90;;;;;;5032578;28;20546;-86
2022/07/14 01:26:47;;;;;;;172.02;155.00;;;17.80;83.50;;;;;;5036434;28;20045;-86
2022/07/14 01:29:14;;;;;;;158.32;143.32;;;17.70;83.30;;;;;;5053378;28;20054;-87
2022/07/14 01:31:41;;;;;;;157.88;142.95;;;17.70;82.90;;;;;;5053215;28;20049;-87
2022/07/14 01:34:08;;;;;;;161.35;146.07;;;17.70;82.90;;;;;;5036300;28;20695;-86
2022/07/14 01:36:37;;;;;;;160.90;145.63;;;17.70;82.90;;;;;;5036038;28;20046;-87
2022/07/14 01:39:06;;;;;;;160.88;145.55;;;17.60;82.90;;;;;;5036249;28;20057;-87
2022/07/14 01:41:34;;;;;;;163.48;147.68;;;17.60;82.70;;;;;;5053283;28;20073;-87
2022/07/14 01:44:02;;;;;;;168.48;152.23;;;17.60;83.10;;;;;;5052527;28;20552;-86
2022/07/14 01:46:29;;;;;;;167.73;151.85;;;17.50;83.30;;;;;;5036407;28;20414;-86
2022/07/14 01:48:56;;;;;;;165.57;149.57;;;17.50;83.40;;;;;;5036062;28;20054;-86
2022/07/14 01:51:25;;;;;;;172.93;156.30;;;17.50;83.50;;;;;;5053361;28;20046;-86
2022/07/14 01:53:53;;;;;;;165.32;149.55;;;17.40;83.10;;;;;;5053098;28;20452;-87
2022/07/14 01:56:23;;;;;;;160.07;144.93;;;17.40;83.00;;;;;;5036400;28;20057;-87
2022/07/14 01:58:52;;;;;;;164.82;149.00;;;17.40;83.20;;;;;;5022556;28;20053;-86
2022/07/14 02:04:16;;;;;;;159.85;144.45;;;17.30;83.50;;;;;;4980784;28;20054;-87
2022/07/14 02:06:44;;;;;;;165.55;149.45;;;17.30;83.80;;;;;;5016194;28;20056;-87
2022/07/14 02:12:14;;;;;;;158.40;143.20;;;17.20;83.90;;;;;;5015684;28;20526;-87
2022/07/14 02:14:42;;;;;;;162.70;146.88;;;17.10;83.60;;;;;;5016644;28;20053;-87
2022/07/14 02:17:10;;;;;;;167.68;151.35;;;17.10;83.50;;;;;;5016302;28;20520;-87
2022/07/14 02:19:37;;;;;;;166.15;150.07;;;17.10;83.60;;;;;;5016394;28;20138;-86
2022/07/14 02:22:05;;;;;;;178.95;161.48;;;17.00;83.60;;;;;;5032531;28;20065;-87
2022/07/14 02:24:32;;;;;;;178.18;160.48;;;17.00;83.90;;;;;;5016340;28;20594;-87
2022/07/14 02:26:59;;;;;;;163.02;147.32;;;17.00;84.20;;;;;;5015519;28;20088;-87
2022/07/14 02:29:27;;;;;;;161.45;146.10;;;16.90;84.10;;;;;;5016133;28;20108;-86
2022/07/14 02:31:54;;;;;;;162.27;146.73;;;16.90;84.10;;;;;;5031972;28;20069;-87
2022/07/14 02:34:21;;;;;;;158.35;143.52;;;16.80;84.00;;;;;;5032757;28;20140;-87
2022/07/14 02:36:52;;;;;;;160.45;145.10;;;16.80;84.10;;;;;;5032687;28;20050;-87
2022/07/14 02:39:19;;;;;;;164.93;148.93;;;16.80;84.20;;;;;;5016109;28;20137;-87
2022/07/14 02:41:46;;;;;;;155.32;139.93;;;16.70;84.30;;;;;;5016013;28;20078;-87
2022/07/14 02:44:14;;;;;;;158.50;142.77;;;16.70;84.30;;;;;;5016169;28;20052;-87
2022/07/14 02:46:45;;;;;;;162.93;146.75;;;16.70;84.50;;;;;;5015791;28;20619;-87
2022/07/14 02:49:12;;;;;;;159.40;143.50;;;16.60;84.70;;;;;;5015581;28;20058;-87
2022/07/14 02:51:41;;;;;;;159.02;142.73;;;16.60;84.70;;;;;;5015818;28;20141;-87
2022/07/14 02:54:08;;;;;;;158.70;142.57;;;16.60;84.90;;;;;;5032340;28;20555;-87
2022/07/14 02:56:38;;;;;;;163.77;147.38;;;16.50;85.20;;;;;;5032099;28;20046;-87
2022/07/14 02:59:06;;;;;;;152.77;137.98;;;16.50;85.40;;;;;;5031888;28;20056;-87
2022/07/14 03:01:35;;;;;;;160.68;144.77;;;16.50;85.60;;;;;;5031923;28;20050;-87
2022/07/14 03:04:06;;;;;;;159.30;143.70;;;16.40;85.50;;;;;;5032120;28;20057;-87
2022/07/14 03:06:34;;;;;;;162.27;145.70;;;16.40;85.50;;;;;;5016139;28;20045;-87
2022/07/14 03:09:02;;;;;;;175.27;157.68;;;16.40;85.30;;;;;;5015360;28;20057;-87
2022/07/14 03:11:29;;;;;;;175.50;157.70;;;16.30;85.20;;;;;;5015363;28;20571;-88
2022/07/14 03:13:56;;;;;;;175.93;158.27;;;16.30;85.30;;;;;;5031947;28;20051;-88
2022/07/14 03:16:23;;;;;;;172.00;154.60;;;16.30;85.40;;;;;;5015751;28;20058;-86
2022/07/14 03:18:53;;;;;;;166.93;149.43;;;16.20;85.40;;;;;;5014774;28;20523;-87
2022/07/14 03:21:23;;;;;;;164.77;148.07;;;16.20;85.50;;;;;;5015269;28;20057;-86
2022/07/14 03:23:53;;;;;;;165.75;148.32;;;16.20;85.70;;;;;;5015561;28;20465;-88
2022/07/14 03:26:24;;;;;;;159.05;142.95;;;16.10;85.60;;;;;;5015353;28;20053;-87
2022/07/14 03:28:51;;;;;;;144.23;130.23;;;16.10;85.70;;;;;;5014663;28;20056;-87
2022/07/14 03:31:18;;;;;;;150.68;135.98;;;16.10;85.90;;;;;;5015398;28;20046;-87
2022/07/14 03:33:46;;;;;;;151.63;136.15;;;16.00;86.00;;;;;;5030605;28;20108;-87
2022/07/14 03:36:15;;;;;;;154.32;139.25;;;16.00;86.10;;;;;;5014341;28;20503;-87
2022/07/14 03:38:44;;;;;;;151.18;135.93;;;16.00;86.10;;;;;;5013946;28;20061;-87
2022/07/14 03:41:12;;;;;;;150.77;135.82;;;15.80;86.40;;;;;;5014857;28;20046;-87
2022/07/14 03:43:39;;;;;;;151.77;136.68;;;15.90;86.60;;;;;;5015210;28;20069;-87
2022/07/14 03:46:08;;;;;;;150.40;135.60;;;15.90;86.50;;;;;;5015134;28;20054;-87
2022/07/14 03:48:39;;;;;;;156.10;139.90;;;15.80;86.40;;;;;;5031144;28;20124;-87
2022/07/14 03:51:07;;;;;;;186.07;166.52;;;15.80;86.40;;;;;;5031835;28;20060;-86
2022/07/14 03:53:36;;;;;;;166.20;148.68;;;15.80;86.40;;;;;;5031468;28;20516;-87
2022/07/14 03:56:06;;;;;;;175.38;156.93;;;15.70;86.30;;;;;;5015256;28;20060;-87
2022/07/14 03:58:44;;;;;;;164.65;147.27;;;15.70;86.50;;;;;;5031595;28;20057;-87
2022/07/14 04:01:10;;;;;;;171.63;153.82;;;15.70;86.50;;;;;;5014535;28;20144;-87
2022/07/14 04:03:37;;;;;;;169.23;151.48;;;15.70;86.40;;;;;;5015244;28;20521;-87
2022/07/14 04:06:06;;;;;;;165.82;148.48;;;15.70;86.50;;;;;;5015441;28;20053;-87
2022/07/14 04:08:33;;;;;;;169.20;151.05;;;15.60;86.80;;;;;;5014710;28;20050;-87
2022/07/14 04:11:05;;;;;;;156.70;139.93;;;15.60;87.30;;;;;;5031630;28;20050;-87
2022/07/14 04:13:33;;;;;;;163.55;146.20;;;15.60;87.60;;;;;;5014990;28;20050;-87
2022/07/14 04:16:00;;;;;;;160.05;143.18;;;15.60;87.80;;;;;;5014939;28;20170;-87
2022/07/14 04:18:31;;;;;;;169.13;150.93;;;15.50;87.90;;;;;;5014606;28;20046;-87
2022/07/14 04:20:58;;;;;;;172.70;154.15;;;15.50;88.30;;;;;;5014758;28;20050;-87
2022/07/14 04:23:27;;;;;;;172.40;153.95;;;15.50;88.90;;;;;;5047980;28;20100;-87
2022/07/14 04:25:54;;;;;;;159.85;143.07;;;15.50;89.50;;;;;;5047834;28;20074;-88
2022/07/14 04:28:23;;;;;;;179.82;160.20;;;15.40;89.80;;;;;;5014099;28;20050;-87
2022/07/14 04:30:50;;;;;;;181.82;162.07;;;15.50;89.90;;;;;;5014831;28;20053;-87
2022/07/14 04:33:20;;;;;;;175.70;156.55;;;15.40;89.70;;;;;;5014871;28;20057;-87
2022/07/14 04:35:48;;;;;;;181.90;161.90;;;15.40;90.00;;;;;;5014766;28;20056;-87
2022/07/14 04:38:15;;;;;;;168.13;149.60;;;15.40;90.20;;;;;;5047880;28;20050;-88
2022/07/14 04:40:48;;;;;;;167.38;149.18;;;15.40;90.50;;;;;;5015238;28;20721;-87
2022/07/14 04:43:16;;;;;;;170.82;152.25;;;15.30;90.70;;;;;;5014371;28;20049;-87
2022/07/14 04:45:45;;;;;;;161.73;144.70;;;15.30;91.10;;;;;;5032088;28;20050;-86
2022/07/14 04:48:13;;;;;;;187.77;166.98;;;15.30;91.40;;;;;;5017486;28;20507;-86
2022/07/14 04:53:26;;;;;;;170.27;151.60;;;15.20;92.10;;;;;;5034761;28;20050;-87
2022/07/14 04:56:09;;;;;;;177.27;156.57;;;15.10;92.10;;;;;;5017775;28;20061;-86
2022/07/14 04:58:41;;;;;;;173.38;154.30;;;15.10;92.20;;;;;;5033867;28;20320;-87
2022/07/14 05:01:10;;;;;;;150.27;134.27;;;15.10;92.50;;;;;;5033737;28;20061;-86
2022/07/14 05:03:42;;;;;;;162.35;144.55;;;15.10;92.80;;;;;;4999277;28;20061;-86
2022/07/14 05:06:11;;;;;;;158.57;140.80;;;15.10;92.90;;;;;;5040399;28;20050;-87
2022/07/14 05:08:38;;;;;;;179.10;156.90;;;15.10;93.00;;;;;;5019005;28;20054;-86
2022/07/14 05:11:07;;;;;;;171.95;150.68;;;15.10;93.30;;;;;;5019176;28;20082;-86
2022/07/14 05:13:34;;;;;;;173.32;150.27;;;15.10;93.20;;;;;;5019405;28;20060;-87
2022/07/14 05:16:02;;;;;;;180.80;152.60;;;15.00;93.80;;;;;;5019408;28;20054;-86
2022/07/14 05:18:31;;;;;;;170.50;147.15;;;15.00;93.60;;;;;;5018523;28;20054;-87
2022/07/14 05:20:58;;;;;;;166.10;145.38;;;15.00;93.80;;;;;;5018911;28;20050;-87
2022/07/14 05:23:26;;;;;;;166.73;144.90;;;15.00;93.90;;;;;;5019109;28;20085;-87
2022/07/14 05:25:54;;;;;;;156.70;139.73;;;15.00;93.90;;;;;;5018333;28;21049;-88
2022/07/14 05:28:23;;;;;;;156.85;140.05;;;15.00;93.80;;;;;;5020699;28;20078;-91
2022/07/14 05:30:58;;;;;;;164.93;146.27;;;15.10;94.10;;;;;;5023088;28;20053;-91
2022/07/14 05:33:33;;;;;;;170.98;147.00;;;15.10;94.20;;;;;;5036773;28;20479;-89
2022/07/14 05:36:30;;;;;;;172.80;153.60;;;15.20;94.40;;;;;;5053336;28;20048;-92
2022/07/14 05:38:59;;;;;;;157.23;140.02;;;15.20;94.00;;;;;;5037331;28;20053;-90
2022/07/14 05:41:26;;;;;;;165.68;144.98;;;15.20;94.40;;;;;;5020314;28;20066;-90
2022/07/14 05:43:53;;;;;;;173.80;147.98;;;15.30;94.50;;;;;;5037326;28;20077;-89
2022/07/14 05:46:25;;;;;;;171.50;151.75;;;15.30;94.70;;;;;;5019594;28;20061;-92
2022/07/14 05:48:54;;;;;;;165.30;147.15;;;15.40;94.80;;;;;;5017973;28;20144;-85
2022/07/14 05:51:22;;;;;;;173.40;153.02;;;15.40;94.80;;;;;;5031779;28;20408;-83
2022/07/14 05:53:52;;;;;;;159.05;141.75;;;15.40;94.80;;;;;;5048358;28;20073;-84
2022/07/14 05:56:22;;;;;;;165.32;147.25;;;15.50;94.80;;;;;;5015846;28;20550;-89
2022/07/14 05:58:50;;;;;;;158.65;141.88;;;15.50;95.00;;;;;;5015158;28;20053;-85
2022/07/14 06:01:20;;;;;;;168.20;149.93;;;15.60;95.00;;;;;;5014861;28;20141;-83
2022/07/14 06:03:53;;;;;;;169.25;150.70;;;15.60;95.00;;;;;;5015088;28;20045;-86
2022/07/14 06:06:22;;;;;;;166.63;147.32;;;15.70;94.80;;;;;;5048627;28;20721;-86
2022/07/14 06:08:49;;;;;;;169.18;149.30;;;15.70;94.80;;;;;;5016934;28;20054;-85
2022/07/14 06:11:17;;;;;;;160.48;142.75;;;15.80;94.70;;;;;;5047403;28;20128;-82
2022/07/14 06:13:45;;;;;;;166.30;147.05;;;15.80;94.70;;;;;;5033041;28;20431;-81
2022/07/14 06:16:13;;;;;;;153.07;134.85;;;15.90;94.50;;;;;;5033521;28;20558;-81
2022/07/14 06:18:43;;;;;;;164.05;145.15;;;15.90;94.60;;;;;;5033122;28;20054;-81
2022/07/14 06:21:11;;;;;;;164.00;145.50;;;16.00;94.50;;;;;;5017270;28;20046;-82
2022/07/14 06:23:39;;;;;;;165.20;147.02;;;16.00;94.40;;;;;;5017212;28;20501;-85
2022/07/14 06:26:11;;;;;;;164.13;142.85;;;16.10;94.40;;;;;;5016915;28;20551;-85
2022/07/14 06:28:41;;;;;;;161.73;139.40;;;16.10;94.40;;;;;;5033480;28;20108;-84
2022/07/14 06:31:09;;;;;;;161.27;143.68;;;16.20;94.40;;;;;;5016906;28;20053;-84
2022/07/14 06:33:37;;;;;;;156.85;139.63;;;16.20;94.50;;;;;;5067207;28;20133;-86
2022/07/14 06:36:20;;;;;;;151.82;135.52;;;16.20;94.50;;;;;;5017237;28;20137;-86
2022/07/14 06:38:49;;;;;;;153.32;137.23;;;16.30;94.60;;;;;;5017263;28;20124;-85
2022/07/14 06:41:16;;;;;;;153.68;137.02;;;16.30;94.30;;;;;;5033804;28;20054;-84
2022/07/14 06:43:45;;;;;;;153.00;136.93;;;16.40;94.30;;;;;;5048864;28;20516;-82
2022/07/14 06:46:15;;;;;;;158.50;141.48;;;16.40;94.30;;;;;;5016464;28;20793;-83
2022/07/14 06:48:42;;;;;;;156.00;139.50;;;16.40;94.10;;;;;;5067165;28;20149;-89
2022/07/14 06:51:09;;;;;;;155.82;139.70;;;16.50;94.00;;;;;;5018352;28;20104;-83
2022/07/14 06:53:37;;;;;;;157.27;140.73;;;16.50;94.10;;;;;;5016472;28;20052;-84
2022/07/14 06:56:06;;;;;;;152.68;136.57;;;16.60;94.00;;;;;;5033396;28;20536;-86
2022/07/14 06:58:33;;;;;;;158.60;141.75;;;16.60;94.10;;;;;;5032814;28;20789;-86
2022/07/14 07:01:00;;;;;;;151.75;136.07;;;16.60;94.10;;;;;;5033019;28;20058;-85
2022/07/14 07:03:27;;;;;;;154.10;137.68;;;16.60;94.10;;;;;;5020951;28;20053;-86
2022/07/14 07:08:38;;;;;;;150.05;134.65;;;16.70;93.70;;;;;;5030819;28;20104;-86
2022/07/14 07:11:06;;;;;;;158.20;141.88;;;16.70;93.70;;;;;;5045229;28;20057;-85
2022/07/14 07:13:33;;;;;;;144.57;129.98;;;16.70;93.90;;;;;;5015521;28;20160;-85
2022/07/14 07:16:04;;;;;;;153.18;137.35;;;16.80;94.20;;;;;;5014621;28;20081;-84
2022/07/14 07:18:31;;;;;;;153.90;138.05;;;16.90;94.10;;;;;;5020615;28;20080;-83
2022/07/14 07:20:58;;;;;;;153.88;137.90;;;16.90;93.90;;;;;;5015934;28;20056;-83
2022/07/14 07:23:25;;;;;;;153.93;137.95;;;16.90;93.50;;;;;;5051958;28;20041;-81
2022/07/14 07:25:53;;;;;;;156.07;140.18;;;16.90;93.50;;;;;;5045341;28;20057;-83
2022/07/14 07:28:21;;;;;;;159.15;142.95;;;17.00;93.50;;;;;;5049066;28;20057;-86
2022/07/14 07:30:50;;;;;;;157.73;141.50;;;17.10;93.70;;;;;;5033437;28;20045;-89
2022/07/14 07:33:18;;;;;;;157.18;140.95;;;17.10;93.40;;;;;;5018912;28;20058;-93
2022/07/14 07:35:45;;;;;;;155.50;139.80;;;17.10;93.00;;;;;;5019012;28;20053;-91
2022/07/14 07:38:17;;;;;;;152.27;136.45;;;17.10;93.00;;;;;;5035395;28;20731;-91
2022/07/14 07:40:48;;;;;;;148.50;133.18;;;17.10;92.80;;;;;;5029663;28;20500;-83
2022/07/14 07:43:15;;;;;;;144.05;129.57;;;17.10;92.70;;;;;;5034194;28;20575;-84
2022/07/14 07:45:44;;;;;;;153.15;138.00;;;17.10;92.80;;;;;;5016955;28;20046;-86
2022/07/14 07:48:10;;;;;;;156.90;140.65;;;17.10;93.10;;;;;;5032233;28;20077;-82
2022/07/14 07:50:37;;;;;;;155.63;139.63;;;17.20;93.40;;;;;;5016423;28;20050;-87
2022/07/14 07:53:07;;;;;;;152.40;137.10;;;17.20;92.30;;;;;;5032042;28;20104;-85
2022/07/14 07:55:34;;;;;;;155.85;140.02;;;17.20;92.30;;;;;;5065441;28;20144;-83
2022/07/14 07:58:01;;;;;;;158.13;142.02;;;17.20;92.20;;;;;;5016014;28;20060;-87
2022/07/14 08:00:30;;;;;;;160.35;144.32;;;17.20;92.30;;;;;;5066276;28;20133;-86
2022/07/14 08:03:01;;;;;;;159.43;143.43;;;17.30;92.40;;;;;;5032569;28;20053;-85
2022/07/14 08:05:29;;;;;;;153.10;137.32;;;17.30;92.20;;;;;;5034825;28;20467;-84
2022/07/14 08:07:57;;;;;;;155.18;139.85;;;17.30;91.30;;;;;;5015307;28;20116;-86
2022/07/14 08:10:24;;;;;;;158.10;142.50;;;17.40;91.30;;;;;;5017387;28;20056;-86
2022/07/14 08:12:51;;;;;;;158.75;142.70;;;17.40;91.30;;;;;;5017852;28;20058;-89
2022/07/14 08:15:22;;;;;;;155.60;140.02;;;17.40;91.40;;;;;;5022480;28;20048;-80
2022/07/14 08:17:49;;;;;;;151.13;136.50;;;17.50;91.60;;;;;;5033023;28;20053;-84
2022/07/14 08:20:19;;;;;;;153.55;138.95;;;17.50;91.80;;;;;;5053124;28;20112;-87
2022/07/14 08:22:46;;;;;;;153.48;138.82;;;17.60;91.30;;;;;;5055265;28;20171;-86
2022/07/14 08:25:13;;;;;;;145.88;131.98;;;17.60;91.10;;;;;;5030665;28;20046;-87
2022/07/14 08:27:40;;;;;;;151.43;136.82;;;17.60;90.10;;;;;;5019118;28;20081;-81
2022/07/14 08:30:08;;;;;;;152.65;137.88;;;17.60;85.90;;;;;;5034969;28;20151;-83
2022/07/14 08:32:36;;;;;;;151.40;136.80;;;17.60;87.80;;;;;;5018602;28;20050;-85
2022/07/14 08:35:04;;;;;;;157.85;143.15;;;17.70;88.00;;;;;;5013652;28;20136;-84
2022/07/14 08:37:33;;;;;;;165.85;149.80;;;17.70;89.60;;;;;;5020663;28;20108;-83
2022/07/14 08:40:01;;;;;;;155.43;141.25;;;17.80;89.50;;;;;;5041779;28;20053;-85
2022/07/14 08:42:29;;;;;;;158.23;143.88;;;17.80;90.10;;;;;;5055272;28;20053;-85
2022/07/14 08:44:56;;;;;;;164.40;148.75;;;17.90;90.40;;;;;;5041035;28;20061;-86
2022/07/14 08:47:23;;;;;;;157.60;142.40;;;18.00;90.20;;;;;;5024716;28;20056;-84
2022/07/14 08:49:50;;;;;;;156.38;141.27;;;18.00;89.00;;;;;;5018562;28;20499;-84
2022/07/14 08:52:18;;;;;;;157.35;142.65;;;18.00;87.70;;;;;;5018320;28;20141;-87
2022/07/14 08:54:47;;;;;;;151.55;137.75;;;18.10;87.70;;;;;;5034781;28;20132;-86
2022/07/14 08:57:14;;;;;;;146.40;132.85;;;18.10;85.60;;;;;;5053838;28;20498;-85
2022/07/14 08:59:41;;;;;;;152.32;137.85;;;18.20;86.00;;;;;;5054236;28;20080;-83
2022/07/14 09:02:08;;;;;;;152.65;138.57;;;18.20;86.00;;;;;;5039303;28;20057;-87
2022/07/14 09:04:35;;;;;;;152.52;138.43;;;18.30;86.60;;;;;;5055067;28;20054;-88
2022/07/14 09:07:02;;;;;;;147.52;133.98;;;18.30;87.60;;;;;;5015688;28;20465;-84
2022/07/14 09:09:31;;;;;;;160.40;144.93;;;18.40;87.50;;;;;;5058679;28;20112;-84
2022/07/14 09:12:04;;;;;;;152.43;137.52;;;18.40;87.40;;;;;;5036598;28;20124;-83
2022/07/14 09:15:44;;;;;;;149.57;135.27;;;18.50;85.60;;;;;;5034535;28;20046;-82
2022/07/14 09:17:24;;;;;;;155.55;140.65;;;18.50;85.50;;;;;;5035002;28;20068;-87
2022/07/14 09:20:10;;;;;;;158.70;143.35;;;18.50;84.20;;;;;;5038020;28;20059;-84
2022/07/14 09:22:39;;;;;;;156.43;141.48;;;18.50;85.10;;;;;;5036810;28;20052;-85
2022/07/14 09:25:08;;;;;;;150.65;136.70;;;18.50;85.20;;;;;;5033884;28;20057;-86
2022/07/14 09:27:38;;;;;;;167.45;151.45;;;18.60;85.80;;;;;;5034914;28;20141;-87
2022/07/14 09:30:06;;;;;;;159.70;144.90;;;18.70;86.00;;;;;;5020429;28;20474;-86
2022/07/14 09:32:58;;;;;;;153.93;139.35;;;18.70;86.50;;;;;;5035945;28;20144;-85
2022/07/14 09:35:26;;;;;;;157.30;142.50;;;18.80;86.00;;;;;;5013771;28;20064;-84
2022/07/14 09:37:55;;;;;;;157.10;142.75;;;18.90;86.50;;;;;;5028930;28;20081;-84
2022/07/14 09:40:26;;;;;;;154.13;139.70;;;19.00;86.90;;;;;;5028197;28;20050;-83
2022/07/14 09:42:57;;;;;;;153.70;139.90;;;19.00;84.90;;;;;;5047557;28;20389;-79
2022/07/14 09:45:27;;;;;;;161.05;146.60;;;19.00;82.70;;;;;;5026088;28;20057;-79
2022/07/14 09:48:03;;;;;;;158.70;144.15;;;19.10;81.80;;;;;;5029215;28;20050;-81
2022/07/14 09:50:42;;;;;;;160.70;146.20;;;19.10;81.20;;;;;;5047332;28;20054;-81
2022/07/14 09:53:16;;;;;;;156.05;141.95;;;19.10;82.20;;;;;;5036999;28;20053;-79
2022/07/14 09:55:46;;;;;;;156.85;142.43;;;19.10;83.80;;;;;;5049048;28;20081;-79
2022/07/14 09:58:14;;;;;;;160.05;145.35;;;19.20;83.40;;;;;;5032948;28;20091;-80
2022/07/14 10:00:42;;;;;;;153.23;139.20;;;19.20;82.90;;;;;;5037153;28;20057;-80
2022/07/14 10:03:10;;;;;;;158.73;143.88;;;19.20;83.10;;;;;;5066937;28;20080;-80
2022/07/14 10:05:38;;;;;;;157.50;142.70;;;19.20;83.20;;;;;;5033347;28;20050;-80
2022/07/14 10:08:06;;;;;;;153.95;139.95;;;19.30;83.40;;;;;;5033401;28;20057;-81
2022/07/14 10:10:37;;;;;;;150.48;137.07;;;19.30;84.20;;;;;;5037742;28;20516;-81
2022/07/14 10:13:05;;;;;;;155.85;141.75;;;19.30;84.70;;;;;;5036514;28;20064;-81
2022/07/14 10:15:33;;;;;;;155.18;141.05;;;19.40;85.20;;;;;;5036034;28;20053;-81
2022/07/14 10:18:04;;;;;;;158.63;144.48;;;19.40;85.10;;;;;;5052222;28;20443;-82
2022/07/14 10:20:31;;;;;;;156.98;142.98;;;19.60;82.70;;;;;;5035546;28;20499;-81
2022/07/14 10:22:59;;;;;;;150.98;137.60;;;19.60;83.30;;;;;;5034501;28;20132;-80
2022/07/14 10:25:26;;;;;;;158.38;144.25;;;19.60;83.60;;;;;;5049037;28;20050;-81
2022/07/14 10:27:54;;;;;;;154.63;140.75;;;19.60;83.70;;;;;;5052144;28;20049;-81
2022/07/14 10:30:29;;;;;;;160.55;146.13;;;19.60;84.80;;;;;;5050071;28;20550;-81
2022/07/14 10:33:05;;;;;;;154.15;140.65;;;19.70;83.50;;;;;;5037447;28;20124;-81
2022/07/14 10:36:00;;;;;;;152.85;139.25;;;19.80;81.90;;;;;;5040234;28;20054;-80
2022/07/14 10:38:40;;;;;;;149.80;136.30;;;19.80;83.20;;;;;;5029838;28;20141;-81
2022/07/14 10:41:18;;;;;;;150.52;136.43;;;19.90;81.80;;;;;;5036187;28;20061;-86
2022/07/14 10:44:11;;;;;;;149.43;135.98;;;19.90;80.40;;;;;;5035727;28;20045;-85
2022/07/14 10:46:40;;;;;;;149.32;136.07;;;19.90;80.10;;;;;;5030025;28;20119;-84
2022/07/14 10:49:10;;;;;;;151.85;138.23;;;19.90;81.90;;;;;;5052857;28;20046;-87
2022/07/14 10:51:45;;;;;;;151.98;138.52;;;19.90;82.00;;;;;;5022454;28;20049;-87
2022/07/14 10:54:13;;;;;;;147.48;134.43;;;19.90;82.60;;;;;;5027085;28;20058;-84
2022/07/14 10:56:42;;;;;;;146.43;133.05;;;19.90;80.70;;;;;;5016322;28;20543;-89
2022/07/14 10:59:31;;;;;;;150.05;136.70;;;19.90;79.60;;;;;;5016721;28;20125;-86
2022/07/14 11:02:35;;;;;;;150.88;137.23;;;19.90;81.40;;;;;;5016842;28;20056;-85
2022/07/14 11:05:13;;;;;;;141.50;128.48;;;19.90;79.00;;;;;;5016410;28;20505;-86
2022/07/14 11:07:43;;;;;;;154.20;140.43;;;19.90;81.30;;;;;;5042620;28;20052;-85
2022/07/14 11:11:11;;;;;;;153.35;139.65;;;20.00;81.90;;;;;;5016121;28;20097;-83
2022/07/14 11:14:07;;;;;;;148.68;135.57;;;20.00;79.40;;;;;;5016303;28;20133;-85
2022/07/14 11:16:57;;;;;;;150.40;137.02;;;19.90;77.70;;;;;;5043884;28;20056;-86
2022/07/14 11:19:30;;;;;;;152.02;138.27;;;19.80;78.10;;;;;;5041071;28;20108;-83
2022/07/14 11:22:17;;;;;;;153.45;139.55;;;19.80;79.40;;;;;;5017216;28;20512;-85
2022/07/14 11:24:56;;;;;;;147.48;134.38;;;19.80;78.10;;;;;;5049569;28;20057;-84
2022/07/14 11:27:35;;;;;;;152.00;138.40;;;19.70;79.30;;;;;;5040821;28;20518;-85
2022/07/14 11:30:27;;;;;;;152.68;139.23;;;19.70;79.50;;;;;;5029281;28;20052;-83
2022/07/14 11:32:59;;;;;;;156.50;142.50;;;19.70;79.90;;;;;;5032039;28;20061;-82
2022/07/14 11:38:31;;;;;;;154.20;140.30;;;19.70;78.10;;;;;;5029092;28;20074;-82
2022/07/14 11:40:58;;;;;;;158.32;143.32;;;19.70;78.20;;;;;;5014829;28;20133;-83
2022/07/14 11:43:39;;;;;;;161.63;145.85;;;19.70;78.60;;;;;;5030918;28;20054;-82
2022/07/14 11:46:07;;;;;;;161.30;145.52;;;19.70;79.20;;;;;;5048079;28;20065;-83
2022/07/14 11:48:36;;;;;;;166.48;151.02;;;19.70;80.10;;;;;;5033428;28;20049;-83
2022/07/14 11:51:04;;;;;;;164.07;148.50;;;19.70;79.80;;;;;;5050219;28;20049;-83
2022/07/14 11:53:34;;;;;;;160.02;145.23;;;19.70;77.90;;;;;;5033782;28;20141;-82
2022/07/14 11:56:01;;;;;;;160.02;145.35;;;19.70;79.10;;;;;;5049346;28;20053;-81
2022/07/14 11:58:30;;;;;;;161.25;146.07;;;19.70;78.70;;;;;;5033323;28;20038;-81
2022/07/14 12:00:59;;;;;;;159.80;145.45;;;19.70;78.60;;;;;;5049681;28;20467;-83
2022/07/14 12:03:27;;;;;;;160.77;146.60;;;19.70;80.90;;;;;;5031986;28;20547;-82
2022/07/14 12:05:56;;;;;;;169.10;154.20;;;19.80;81.00;;;;;;5032056;28;20080;-82
2022/07/14 12:08:25;;;;;;;168.20;153.43;;;19.90;82.30;;;;;;5015125;28;20054;-84
2022/07/14 12:10:54;;;;;;;162.50;147.80;;;19.90;80.20;;;;;;5031015;28;20528;-82
2022/07/14 12:13:21;;;;;;;158.85;144.55;;;19.90;79.60;;;;;;5031530;28;20834;-82
2022/07/14 12:15:48;;;;;;;156.95;142.68;;;20.00;80.10;;;;;;5030449;28;20048;-84
2022/07/14 12:18:15;;;;;;;165.13;150.70;;;20.00;82.20;;;;;;5047332;28;20140;-82
2022/07/14 12:20:44;;;;;;;155.50;141.00;;;20.10;82.60;;;;;;5016055;28;20157;-82
2022/07/14 12:23:12;;;;;;;157.98;143.23;;;20.10;81.10;;;;;;5047281;28;20060;-81
2022/07/14 12:25:41;;;;;;;157.25;142.55;;;20.20;79.30;;;;;;5030055;28;20050;-82
2022/07/14 12:28:11;;;;;;;165.18;150.38;;;20.30;78.30;;;;;;5031375;28;20064;-81
2022/07/14 12:30:47;;;;;;;167.55;152.45;;;20.30;77.90;;;;;;5031012;28;20046;-82
2022/07/14 12:33:17;;;;;;;161.00;146.07;;;20.30;79.90;;;;;;5064426;28;20472;-82
2022/07/14 12:35:46;;;;;;;165.32;150.13;;;20.30;80.00;;;;;;5035047;28;20057;-82